createdAt,value
2022-08-05T00:01:28.034Z,20.37
2022-08-05T00:06:33.338Z,20.21
2022-08-05T00:11:49.661Z,20.21
2022-08-05T00:16:58.478Z,20.18
2022-08-05T00:22:04.661Z,18.20
2022-08-05T00:27:10.554Z,19.53
2022-08-05T00:32:18.808Z,17.39
2022-08-05T00:37:21.229Z,18.27
2022-08-05T00:42:31.546Z,18.41
2022-08-05T00:47:57.077Z,19.47
2022-08-05T00:52:57.230Z,19.98
2022-08-05T00:58:00.065Z,19.86
2022-08-05T01:03:02.478Z,17.91
2022-08-05T01:08:40.259Z,19.78
2022-08-05T01:13:58.585Z,17.39
2022-08-05T01:19:30.381Z,19.87
2022-08-05T01:24:50.422Z,19.86
2022-08-05T01:29:55.261Z,19.62
2022-08-05T01:35:02.275Z,17.56
2022-08-05T01:40:06.760Z,19.38
2022-08-05T01:45:09.773Z,19.59
2022-08-05T01:50:17.353Z,19.54
2022-08-05T01:55:21.535Z,19.22
2022-08-05T02:00:30.348Z,19.03
2022-08-05T02:05:36.501Z,19.14
2022-08-05T02:10:51.938Z,19.69
2022-08-05T02:16:04.773Z,18.70
2022-08-05T02:21:15.018Z,19.35
2022-08-05T02:26:23.069Z,19.34
2022-08-05T02:31:35.007Z,18.63
2022-08-05T02:36:41.771Z,19.32
2022-08-05T02:41:57.843Z,19.52
2022-08-05T02:47:06.520Z,18.83
2022-08-05T02:52:30.278Z,18.45
2022-08-05T02:58:19.950Z,19.02
2022-08-05T03:02:57.847Z,19.62
2022-08-05T03:08:08.638Z,19.43
2022-08-05T03:13:16.732Z,19.69
2022-08-05T03:18:19.355Z,19.42
2022-08-05T03:23:33.665Z,19.55
2022-08-05T03:28:37.065Z,18.99
2022-08-05T03:33:51.043Z,19.01
2022-08-05T03:38:55.418Z,19.52
2022-08-05T03:44:09.235Z,19.87
2022-08-05T03:49:13.565Z,20.15
2022-08-05T03:55:34.573Z,20.38
2022-08-05T04:00:15.843Z,20.29
2022-08-05T04:05:19.163Z,20.28
2022-08-05T04:10:21.684Z,19.21
2022-08-05T04:15:24.562Z,20.50
2022-08-05T04:20:26.935Z,20.41
2022-08-05T04:25:56.472Z,18.43
2022-08-05T04:30:51.425Z,19.93
2022-08-05T04:36:10.962Z,20.65
2022-08-05T04:41:37.673Z,20.74
2022-08-05T04:46:41.087Z,20.64
2022-08-05T04:52:07.974Z,20.89
2022-08-05T04:57:37.008Z,21.00
2022-08-05T05:02:43.105Z,21.01
2022-08-05T05:07:55.230Z,20.42
2022-08-05T05:12:59.126Z,19.33
2022-08-05T05:18:28.251Z,21.39
2022-08-05T05:23:39.014Z,21.13
2022-08-05T05:28:56.295Z,21.53
2022-08-05T05:34:02.381Z,21.93
2022-08-05T05:39:05.099Z,20.23
2022-08-05T05:44:35.837Z,21.10
2022-08-05T05:49:35.558Z,22.12
2022-08-05T05:54:50.647Z,22.11
2022-08-05T05:59:53.458Z,21.41
2022-08-05T06:04:56.727Z,21.57
2022-08-05T06:10:04.791Z,21.98
2022-08-05T06:15:23.818Z,22.29
2022-08-05T06:20:26.644Z,22.02
2022-08-05T06:26:12.727Z,21.35
2022-08-05T06:30:53.225Z,22.09
2022-08-05T06:36:03.746Z,22.14
2022-08-05T06:41:11.660Z,22.42
2022-08-05T06:46:14.016Z,22.48
2022-08-05T06:56:33.421Z,22.87
2022-08-05T07:01:37.463Z,21.07
2022-08-05T07:06:43.142Z,22.50
2022-08-05T07:11:49.482Z,22.68
2022-08-05T07:18:00.931Z,22.99
2022-08-05T07:22:28.907Z,22.89
2022-08-05T07:27:57.134Z,22.72
2022-08-05T07:32:55.407Z,23.09
2022-08-05T07:37:59.629Z,23.61
2022-08-05T07:43:04.891Z,23.82
2022-08-05T07:49:02.776Z,24.01
2022-08-05T07:53:50.352Z,23.88
2022-08-05T07:58:57.530Z,23.38
2022-08-05T08:04:01.592Z,24.88
2022-08-05T08:09:04.382Z,24.59
2022-08-05T08:14:07.850Z,25.01
2022-08-05T08:19:37.938Z,24.92
2022-08-05T08:24:51.034Z,25.49
2022-08-05T08:30:05.601Z,25.01
2022-08-05T08:35:16.346Z,25.56
2022-08-05T08:40:25.593Z,25.77
2022-08-05T08:45:44.392Z,26.06
2022-08-05T08:51:03.886Z,26.08
2022-08-05T08:56:12.731Z,25.11
2022-08-05T09:01:15.776Z,26.54
2022-08-05T09:06:28.267Z,24.42
2022-08-05T09:51:19.106Z,27.72
2022-08-05T09:56:35.314Z,27.45
2022-08-05T10:01:46.332Z,27.42
2022-08-05T10:07:01.488Z,27.45
2022-08-05T10:12:18.460Z,28.22
2022-08-05T10:17:39.826Z,28.12
2022-08-05T10:22:50.690Z,27.78
2022-08-05T10:28:13.192Z,28.37
2022-08-05T10:33:24.299Z,28.10
2022-08-05T10:38:33.099Z,28.03
2022-08-05T10:44:04.741Z,28.33
2022-08-05T10:49:26.945Z,27.90
2022-08-05T10:54:56.806Z,28.00
2022-08-05T11:00:18.197Z,27.79
2022-08-05T11:05:23.508Z,27.37
2022-08-05T11:10:29.607Z,27.61
2022-08-05T11:16:00.026Z,27.71
2022-08-05T11:21:11.262Z,28.11
2022-08-05T11:26:28.545Z,28.26
2022-08-05T11:31:57.454Z,27.86
2022-08-05T11:36:54.730Z,27.73
2022-08-05T11:42:04.412Z,28.08
2022-08-05T11:47:14.110Z,28.44
2022-08-05T11:52:35.201Z,27.70
2022-08-05T11:58:08.165Z,28.36
2022-08-05T12:03:29.630Z,27.88
2022-08-05T12:08:39.303Z,27.28
2022-08-05T12:13:58.771Z,28.74
2022-08-05T12:19:04.678Z,27.55
2022-08-05T12:24:14.211Z,28.91
2022-08-05T12:29:29.165Z,26.73
2022-08-05T12:34:41.532Z,28.75
2022-08-05T12:39:51.217Z,29.08
2022-08-05T12:45:08.812Z,27.46
2022-08-05T12:50:16.785Z,29.46
2022-08-05T12:55:25.147Z,28.88
2022-08-05T13:02:01.313Z,29.34
2022-08-05T13:05:56.843Z,27.94
2022-08-05T13:11:02.468Z,29.11
2022-08-05T13:16:15.356Z,28.93
2022-08-05T13:21:19.289Z,27.80
2022-08-05T13:26:29.782Z,27.58
2022-08-05T13:32:05.048Z,28.49
2022-08-05T13:36:56.119Z,28.98
2022-08-05T13:41:58.864Z,28.82
2022-08-05T13:47:04.873Z,27.47
2022-08-05T13:52:18.492Z,27.38
2022-08-05T13:57:21.475Z,28.99
2022-08-05T14:02:26.558Z,28.52
2022-08-05T14:08:02.706Z,28.27
2022-08-05T14:12:58.258Z,27.59
2022-08-05T14:18:01.310Z,28.77
2022-08-05T14:23:03.783Z,28.52
2022-08-05T14:28:09.008Z,28.42
2022-08-05T14:33:56.301Z,28.66
2022-08-05T14:44:02.575Z,28.61
2022-08-05T14:49:11.814Z,28.00
2022-08-05T14:54:30.031Z,27.74
2022-08-05T14:59:35.783Z,28.26
2022-08-05T15:04:38.250Z,27.93
2022-08-05T15:09:52.045Z,27.69
2022-08-05T15:14:58.270Z,27.71
2022-08-05T15:20:01.033Z,27.14
2022-08-05T15:25:13.777Z,26.50
2022-08-05T15:30:16.858Z,27.56
2022-08-05T15:35:21.957Z,25.80
2022-08-05T15:41:20.065Z,27.30
2022-08-05T15:52:09.823Z,26.70
2022-08-05T15:56:52.113Z,27.29
2022-08-05T16:01:56.432Z,25.12
2022-08-05T16:07:03.694Z,25.75
2022-08-05T16:12:08.711Z,26.75
2022-08-05T16:17:11.867Z,26.98
2022-08-05T16:22:15.572Z,26.34
2022-08-05T16:27:32.310Z,26.53
2022-08-05T16:32:43.334Z,25.08
2022-08-05T16:38:03.379Z,26.53
2022-08-05T16:43:10.845Z,26.39
2022-08-05T16:48:25.144Z,25.73
2022-08-05T16:53:32.145Z,23.62
2022-08-05T16:58:53.198Z,26.06
2022-08-05T17:03:55.825Z,25.41
2022-08-05T17:08:58.535Z,25.95
2022-08-05T17:14:06.321Z,25.89
2022-08-05T17:19:10.759Z,25.70
2022-08-05T17:24:30.301Z,24.69
2022-08-05T17:29:41.075Z,24.50
2022-08-05T17:34:44.588Z,25.65
2022-08-05T17:39:51.510Z,25.23
2022-08-05T17:45:00.261Z,25.01
2022-08-05T17:50:12.858Z,25.17
2022-08-05T17:55:15.176Z,24.48
2022-08-05T18:00:18.508Z,24.74
2022-08-05T18:05:21.038Z,24.74
2022-08-05T18:10:23.473Z,24.54
2022-08-05T18:15:27.768Z,24.90
2022-08-05T18:20:36.302Z,24.21
2022-08-05T18:25:39.506Z,24.20
2022-08-05T18:30:52.178Z,24.36
2022-08-05T18:36:04.962Z,24.45
2022-08-05T18:41:57.289Z,23.74
2022-08-05T18:47:04.224Z,23.96
2022-08-05T18:52:32.954Z,23.66
2022-08-05T18:57:43.610Z,23.25
2022-08-05T19:02:55.386Z,23.13
2022-08-05T19:08:00.488Z,23.55
2022-08-05T19:13:03.065Z,23.45
2022-08-05T19:18:10.297Z,23.44
2022-08-05T19:24:03.825Z,23.06
2022-08-05T19:28:41.487Z,23.11
2022-08-05T19:33:48.566Z,22.37
2022-08-05T19:39:01.472Z,23.08
2022-08-05T19:44:13.761Z,22.99
2022-08-05T19:49:17.818Z,22.91
2022-08-05T19:54:26.649Z,21.60
2022-08-05T19:59:55.225Z,22.61
2022-08-05T20:04:58.815Z,22.18
2022-08-05T20:10:02.729Z,22.21
2022-08-05T20:15:14.399Z,22.46
2022-08-05T20:20:16.968Z,21.48
2022-08-05T20:25:19.385Z,21.82
2022-08-05T20:30:27.770Z,22.12
2022-08-05T20:35:31.598Z,21.64
2022-08-05T20:40:43.336Z,21.74
2022-08-05T20:45:55.915Z,22.02
2022-08-05T20:50:59.393Z,21.56
2022-08-05T20:56:10.421Z,21.49
2022-08-05T21:01:13.314Z,21.47
2022-08-05T21:06:27.901Z,21.34
2022-08-05T21:12:07.515Z,18.63
2022-08-05T21:16:53.571Z,20.92
2022-08-05T21:21:55.878Z,20.70
2022-08-05T21:26:58.881Z,20.76
2022-08-05T21:32:02.824Z,20.49
2022-08-05T21:37:05.332Z,20.15
2022-08-05T21:42:30.584Z,21.01
2022-08-05T21:47:55.139Z,20.74
2022-08-05T21:52:52.851Z,20.63
2022-08-05T21:57:55.214Z,21.01
2022-08-05T22:02:58.405Z,20.71
2022-08-05T22:08:02.229Z,20.72
2022-08-05T22:13:09.129Z,20.59
2022-08-05T22:18:27.095Z,20.47
2022-08-05T22:24:01.242Z,20.67
2022-08-05T22:29:05.993Z,20.49
2022-08-05T22:34:08.472Z,19.71
2022-08-05T22:39:21.561Z,20.09
2022-08-05T22:44:23.920Z,20.43
2022-08-05T22:50:21.399Z,19.22
2022-08-05T22:54:49.765Z,20.09
2022-08-05T22:59:54.077Z,20.27
2022-08-05T23:04:56.591Z,19.49
2022-08-05T23:10:01.173Z,20.20
2022-08-05T23:15:08.930Z,19.91
2022-08-05T23:20:16.626Z,19.82
2022-08-05T23:25:53.250Z,19.91
2022-08-05T23:30:52.805Z,19.76
2022-08-05T23:35:56.611Z,19.93
2022-08-05T23:40:58.889Z,19.77
2022-08-05T23:46:20.632Z,19.85
2022-08-05T23:51:24.235Z,19.59
2022-08-05T23:56:27.520Z,19.60
